sensor_id;sensor_type;location;lat;lon;timestamp;pressure;altitude;pressure_sealevel;temperature;humidity
56182;BME280;51963;46.052;14.544;2023-06-01T00:02:03;98384.63;;;15.47;100.00
56182;BME280;51963;46.052;14.544;2023-06-01T00:04:29;98382.84;;;15.40;100.00
56182;BME280;51963;46.052;14.544;2023-06-01T00:06:56;98374.66;;;15.42;100.00
56182;BME280;51963;46.052;14.544;2023-06-01T00:09:26;98375.75;;;15.53;100.00
56182;BME280;51963;46.052;14.544;2023-06-01T00:11:52;98381.09;;;15.53;100.00
56182;BME280;51963;46.052;14.544;2023-06-01T00:14:17;98384.31;;;15.62;100.00
56182;BME280;51963;46.052;14.544;2023-06-01T00:16:44;98376.06;;;15.89;100.00
56182;BME280;51963;46.052;14.544;2023-06-01T00:19:11;98371.72;;;15.94;100.00
56182;BME280;51963;46.052;14.544;2023-06-01T00:21:37;98369.53;;;16.03;100.00
56182;BME280;51963;46.052;14.544;2023-06-01T00:24:04;98368.81;;;15.96;100.00
56182;BME280;51963;46.052;14.544;2023-06-01T00:26:31;98374.56;;;16.11;100.00
56182;BME280;51963;46.052;14.544;2023-06-01T00:29:01;98371.13;;;15.92;100.00
56182;BME280;51963;46.052;14.544;2023-06-01T00:31:32;98370.31;;;15.85;100.00
56182;BME280;51963;46.052;14.544;2023-06-01T00:33:59;98368.53;;;15.79;100.00
56182;BME280;51963;46.052;14.544;2023-06-01T00:36:24;98363.50;;;15.70;100.00
56182;BME280;51963;46.052;14.544;2023-06-01T00:38:50;98367.63;;;15.66;100.00
56182;BME280;51963;46.052;14.544;2023-06-01T00:41:16;98372.25;;;15.78;100.00
56182;BME280;51963;46.052;14.544;2023-06-01T00:43:42;98371.19;;;15.79;100.00
56182;BME280;51963;46.052;14.544;2023-06-01T00:46:08;98361.28;;;15.67;100.00
56182;BME280;51963;46.052;14.544;2023-06-01T00:48:35;98367.13;;;15.58;100.00
56182;BME280;51963;46.052;14.544;2023-06-01T00:51:01;98363.03;;;15.55;100.00
56182;BME280;51963;46.052;14.544;2023-06-01T00:53:27;98368.69;;;15.65;100.00
56182;BME280;51963;46.052;14.544;2023-06-01T00:55:53;98353.88;;;15.69;100.00
56182;BME280;51963;46.052;14.544;2023-06-01T00:58:18;98368.81;;;15.70;100.00
56182;BME280;51963;46.052;14.544;2023-06-01T01:00:45;98366.31;;;15.76;100.00
56182;BME280;51963;46.052;14.544;2023-06-01T01:03:13;98366.09;;;15.77;100.00
56182;BME280;51963;46.052;14.544;2023-06-01T01:05:41;98364.63;;;15.63;100.00
56182;BME280;51963;46.052;14.544;2023-06-01T01:11:19;98370.81;;;15.57;100.00
56182;BME280;51963;46.052;14.544;2023-06-01T01:13:59;98367.94;;;15.58;100.00
56182;BME280;51963;46.052;14.544;2023-06-01T01:19:35;98360.38;;;15.74;100.00
56182;BME280;51963;46.052;14.544;2023-06-01T01:27:45;98368.00;;;15.51;100.00
56182;BME280;51963;46.052;14.544;2023-06-01T01:30:21;98363.56;;;15.45;100.00
56182;BME280;51963;46.052;14.544;2023-06-01T01:32:48;98355.34;;;15.47;100.00
56182;BME280;51963;46.052;14.544;2023-06-01T01:35:15;98347.94;;;15.49;100.00
56182;BME280;51963;46.052;14.544;2023-06-01T01:37:51;98351.13;;;15.39;100.00
56182;BME280;51963;46.052;14.544;2023-06-01T01:40:17;98346.44;;;15.34;100.00
56182;BME280;51963;46.052;14.544;2023-06-01T01:42:43;98352.88;;;15.27;100.00
56182;BME280;51963;46.052;14.544;2023-06-01T01:45:09;98352.91;;;15.20;100.00
56182;BME280;51963;46.052;14.544;2023-06-01T01:47:51;98355.25;;;15.09;100.00
56182;BME280;51963;46.052;14.544;2023-06-01T01:50:21;98353.84;;;15.07;100.00
56182;BME280;51963;46.052;14.544;2023-06-01T01:52:49;98345.91;;;15.00;100.00
56182;BME280;51963;46.052;14.544;2023-06-01T01:55:18;98348.84;;;14.92;100.00
56182;BME280;51963;46.052;14.544;2023-06-01T01:57:50;98344.09;;;14.94;100.00
56182;BME280;51963;46.052;14.544;2023-06-01T02:00:17;98350.16;;;15.08;100.00
56182;BME280;51963;46.052;14.544;2023-06-01T02:02:46;98352.00;;;15.07;100.00
56182;BME280;51963;46.052;14.544;2023-06-01T02:05:12;98349.00;;;14.97;100.00
56182;BME280;51963;46.052;14.544;2023-06-01T02:07:38;98343.91;;;14.95;100.00
56182;BME280;51963;46.052;14.544;2023-06-01T02:10:05;98328.81;;;14.89;100.00
56182;BME280;51963;46.052;14.544;2023-06-01T02:12:31;98344.00;;;15.07;100.00
56182;BME280;51963;46.052;14.544;2023-06-01T02:14:58;98354.00;;;15.12;100.00
56182;BME280;51963;46.052;14.544;2023-06-01T02:17:23;98337.81;;;15.14;100.00
56182;BME280;51963;46.052;14.544;2023-06-01T02:19:51;98343.72;;;15.16;100.00
56182;BME280;51963;46.052;14.544;2023-06-01T02:22:16;98338.84;;;15.13;100.00
56182;BME280;51963;46.052;14.544;2023-06-01T02:24:42;98343.72;;;15.16;100.00
56182;BME280;51963;46.052;14.544;2023-06-01T02:27:08;98353.94;;;15.19;100.00
56182;BME280;51963;46.052;14.544;2023-06-01T02:29:33;98343.28;;;15.19;100.00
56182;BME280;51963;46.052;14.544;2023-06-01T02:32:00;98345.25;;;15.30;100.00
56182;BME280;51963;46.052;14.544;2023-06-01T02:34:26;98341.84;;;15.42;100.00
56182;BME280;51963;46.052;14.544;2023-06-01T02:36:52;98344.66;;;15.47;100.00
56182;BME280;51963;46.052;14.544;2023-06-01T02:39:22;98341.41;;;15.45;100.00
56182;BME280;51963;46.052;14.544;2023-06-01T02:41:49;98338.44;;;15.34;100.00
56182;BME280;51963;46.052;14.544;2023-06-01T02:44:15;98343.56;;;15.36;100.00
56182;BME280;51963;46.052;14.544;2023-06-01T02:46:41;98346.44;;;15.34;100.00
56182;BME280;51963;46.052;14.544;2023-06-01T02:49:09;98346.00;;;15.37;100.00
56182;BME280;51963;46.052;14.544;2023-06-01T02:51:35;98341.09;;;15.34;100.00
56182;BME280;51963;46.052;14.544;2023-06-01T02:54:21;98342.41;;;15.25;100.00
56182;BME280;51963;46.052;14.544;2023-06-01T02:56:47;98335.75;;;15.16;100.00
56182;BME280;51963;46.052;14.544;2023-06-01T02:59:23;98337.53;;;15.22;100.00
56182;BME280;51963;46.052;14.544;2023-06-01T03:01:55;98329.06;;;15.06;100.00
56182;BME280;51963;46.052;14.544;2023-06-01T03:04:21;98320.53;;;14.98;100.00
56182;BME280;51963;46.052;14.544;2023-06-01T03:06:47;98344.84;;;15.08;100.00
56182;BME280;51963;46.052;14.544;2023-06-01T03:09:29;98325.81;;;15.04;100.00
56182;BME280;51963;46.052;14.544;2023-06-01T03:12:27;98324.56;;;15.07;100.00
56182;BME280;51963;46.052;14.544;2023-06-01T03:14:53;98327.38;;;15.12;100.00
56182;BME280;51963;46.052;14.544;2023-06-01T03:17:19;98329.69;;;15.27;100.00
56182;BME280;51963;46.052;14.544;2023-06-01T03:19:45;98314.03;;;15.37;100.00
56182;BME280;51963;46.052;14.544;2023-06-01T03:22:20;98332.78;;;15.49;100.00
56182;BME280;51963;46.052;14.544;2023-06-01T03:24:46;98329.53;;;15.22;100.00
56182;BME280;51963;46.052;14.544;2023-06-01T03:27:17;98331.13;;;15.04;100.00
56182;BME280;51963;46.052;14.544;2023-06-01T03:29:45;98335.91;;;14.95;100.00
56182;BME280;51963;46.052;14.544;2023-06-01T03:32:11;98330.47;;;14.84;100.00
56182;BME280;51963;46.052;14.544;2023-06-01T03:34:39;98323.94;;;14.79;100.00
56182;BME280;51963;46.052;14.544;2023-06-01T03:37:06;98332.00;;;14.73;100.00
56182;BME280;51963;46.052;14.544;2023-06-01T03:39:33;98326.50;;;14.61;100.00
56182;BME280;51963;46.052;14.544;2023-06-01T03:42:02;98331.88;;;14.54;100.00
56182;BME280;51963;46.052;14.544;2023-06-01T03:44:30;98333.09;;;14.51;100.00
56182;BME280;51963;46.052;14.544;2023-06-01T03:46:56;98321.00;;;14.56;100.00
56182;BME280;51963;46.052;14.544;2023-06-01T03:49:22;98330.28;;;14.46;100.00
56182;BME280;51963;46.052;14.544;2023-06-01T03:51:49;98320.91;;;14.44;100.00
56182;BME280;51963;46.052;14.544;2023-06-01T03:54:16;98334.19;;;14.44;100.00
56182;BME280;51963;46.052;14.544;2023-06-01T03:56:41;98324.00;;;14.34;100.00
56182;BME280;51963;46.052;14.544;2023-06-01T03:59:07;98334.81;;;14.39;100.00
56182;BME280;51963;46.052;14.544;2023-06-01T04:01:37;98335.41;;;14.41;100.00
56182;BME280;51963;46.052;14.544;2023-06-01T04:04:08;98330.63;;;14.57;100.00
56182;BME280;51963;46.052;14.544;2023-06-01T04:06:35;98333.72;;;14.53;100.00
56182;BME280;51963;46.052;14.544;2023-06-01T04:09:03;98340.75;;;14.41;100.00
56182;BME280;51963;46.052;14.544;2023-06-01T04:11:33;98342.00;;;14.38;100.00
56182;BME280;51963;46.052;14.544;2023-06-01T04:13:59;98338.50;;;14.38;100.00
56182;BME280;51963;46.052;14.544;2023-06-01T04:16:28;98340.13;;;14.46;100.00
56182;BME280;51963;46.052;14.544;2023-06-01T04:18:54;98340.84;;;14.60;100.00
56182;BME280;51963;46.052;14.544;2023-06-01T04:21:24;98331.78;;;14.67;100.00
56182;BME280;51963;46.052;14.544;2023-06-01T04:23:51;98330.53;;;14.77;100.00
56182;BME280;51963;46.052;14.544;2023-06-01T04:26:19;98309.91;;;14.65;100.00
56182;BME280;51963;46.052;14.544;2023-06-01T04:28:45;98331.50;;;14.82;100.00
56182;BME280;51963;46.052;14.544;2023-06-01T04:31:14;98338.28;;;14.78;100.00
56182;BME280;51963;46.052;14.544;2023-06-01T04:33:45;98337.06;;;14.81;100.00
56182;BME280;51963;46.052;14.544;2023-06-01T04:36:19;98339.88;;;14.86;100.00
56182;BME280;51963;46.052;14.544;2023-06-01T04:38:51;98344.38;;;14.86;100.00
56182;BME280;51963;46.052;14.544;2023-06-01T04:41:21;98311.75;;;14.65;100.00
56182;BME280;51963;46.052;14.544;2023-06-01T04:43:48;98325.41;;;14.75;100.00
56182;BME280;51963;46.052;14.544;2023-06-01T04:46:22;98338.69;;;14.82;100.00
56182;BME280;51963;46.052;14.544;2023-06-01T04:48:52;98344.78;;;14.89;100.00
56182;BME280;51963;46.052;14.544;2023-06-01T04:51:19;98338.44;;;14.84;100.00
56182;BME280;51963;46.052;14.544;2023-06-01T04:53:45;98326.78;;;14.85;100.00
56182;BME280;51963;46.052;14.544;2023-06-01T04:56:19;98330.03;;;14.87;100.00
56182;BME280;51963;46.052;14.544;2023-06-01T04:58:46;98330.97;;;14.99;100.00
56182;BME280;51963;46.052;14.544;2023-06-01T05:01:15;98326.84;;;15.03;100.00
56182;BME280;51963;46.052;14.544;2023-06-01T05:03:43;98326.44;;;15.25;100.00
56182;BME280;51963;46.052;14.544;2023-06-01T05:06:12;98330.97;;;15.24;100.00
56182;BME280;51963;46.052;14.544;2023-06-01T05:08:39;98331.28;;;15.35;100.00
56182;BME280;51963;46.052;14.544;2023-06-01T05:11:07;98332.53;;;15.32;100.00
56182;BME280;51963;46.052;14.544;2023-06-01T05:13:37;98332.75;;;15.31;100.00
56182;BME280;51963;46.052;14.544;2023-06-01T05:16:04;98333.88;;;15.42;100.00
56182;BME280;51963;46.052;14.544;2023-06-01T05:18:31;98326.75;;;15.35;100.00
56182;BME280;51963;46.052;14.544;2023-06-01T05:20:57;98324.09;;;15.54;100.00
56182;BME280;51963;46.052;14.544;2023-06-01T05:23:25;98317.91;;;15.60;100.00
56182;BME280;51963;46.052;14.544;2023-06-01T05:25:51;98325.16;;;15.72;100.00
56182;BME280;51963;46.052;14.544;2023-06-01T05:28:20;98323.63;;;16.01;100.00
56182;BME280;51963;46.052;14.544;2023-06-01T05:30:47;98327.84;;;16.09;100.00
56182;BME280;51963;46.052;14.544;2023-06-01T05:33:12;98331.56;;;16.08;100.00
56182;BME280;51963;46.052;14.544;2023-06-01T05:35:38;98327.38;;;16.31;100.00
56182;BME280;51963;46.052;14.544;2023-06-01T05:38:09;98324.69;;;16.31;100.00
56182;BME280;51963;46.052;14.544;2023-06-01T05:40:37;98310.06;;;16.33;100.00
56182;BME280;51963;46.052;14.544;2023-06-01T05:43:18;98322.28;;;16.41;100.00
56182;BME280;51963;46.052;14.544;2023-06-01T05:45:47;98321.09;;;16.67;100.00
56182;BME280;51963;46.052;14.544;2023-06-01T05:48:14;98319.50;;;16.90;100.00
56182;BME280;51963;46.052;14.544;2023-06-01T05:50:42;98323.59;;;17.05;100.00
56182;BME280;51963;46.052;14.544;2023-06-01T05:53:08;98313.63;;;17.00;100.00
56182;BME280;51963;46.052;14.544;2023-06-01T05:55:35;98317.47;;;17.04;100.00
56182;BME280;51963;46.052;14.544;2023-06-01T05:58:01;98303.41;;;16.97;100.00
56182;BME280;51963;46.052;14.544;2023-06-01T06:00:27;98309.47;;;17.04;100.00
56182;BME280;51963;46.052;14.544;2023-06-01T06:02:53;98312.81;;;17.11;100.00
56182;BME280;51963;46.052;14.544;2023-06-01T06:05:18;98310.03;;;17.30;100.00
56182;BME280;51963;46.052;14.544;2023-06-01T06:07:44;98310.16;;;17.35;100.00
56182;BME280;51963;46.052;14.544;2023-06-01T06:10:11;98306.09;;;17.44;100.00
56182;BME280;51963;46.052;14.544;2023-06-01T06:12:37;98309.91;;;17.49;100.00
56182;BME280;51963;46.052;14.544;2023-06-01T06:15:04;98311.50;;;17.73;100.00
56182;BME280;51963;46.052;14.544;2023-06-01T06:17:30;98318.00;;;17.78;100.00
56182;BME280;51963;46.052;14.544;2023-06-01T06:19:58;98318.72;;;17.61;100.00
56182;BME280;51963;46.052;14.544;2023-06-01T06:22:25;98321.19;;;17.51;100.00
56182;BME280;51963;46.052;14.544;2023-06-01T06:24:50;98313.84;;;17.58;100.00
56182;BME280;51963;46.052;14.544;2023-06-01T06:27:19;98325.91;;;17.72;100.00
56182;BME280;51963;46.052;14.544;2023-06-01T06:29:45;98320.06;;;17.87;100.00
56182;BME280;51963;46.052;14.544;2023-06-01T06:32:11;98325.25;;;18.18;100.00
56182;BME280;51963;46.052;14.544;2023-06-01T06:34:37;98317.53;;;18.22;100.00
56182;BME280;51963;46.052;14.544;2023-06-01T06:37:07;98324.22;;;18.36;100.00
56182;BME280;51963;46.052;14.544;2023-06-01T06:39:33;98316.06;;;18.43;100.00
56182;BME280;51963;46.052;14.544;2023-06-01T06:42:00;98324.44;;;18.64;100.00
56182;BME280;51963;46.052;14.544;2023-06-01T06:44:28;98325.75;;;18.78;100.00
56182;BME280;51963;46.052;14.544;2023-06-01T06:46:53;98319.00;;;19.04;100.00
56182;BME280;51963;46.052;14.544;2023-06-01T06:49:22;98329.03;;;19.14;100.00
56182;BME280;51963;46.052;14.544;2023-06-01T06:51:47;98309.06;;;19.05;100.00
56182;BME280;51963;46.052;14.544;2023-06-01T06:54:16;98326.16;;;19.38;100.00
56182;BME280;51963;46.052;14.544;2023-06-01T06:56:42;98316.84;;;19.63;100.00
56182;BME280;51963;46.052;14.544;2023-06-01T06:59:08;98320.34;;;19.86;98.64
56182;BME280;51963;46.052;14.544;2023-06-01T07:01:34;98318.78;;;20.34;94.13
56182;BME280;51963;46.052;14.544;2023-06-01T07:04:06;98324.75;;;20.69;93.01
56182;BME280;51963;46.052;14.544;2023-06-01T07:06:32;98321.47;;;20.34;94.40
56182;BME280;51963;46.052;14.544;2023-06-01T07:08:58;98315.41;;;20.77;92.56
56182;BME280;51963;46.052;14.544;2023-06-01T07:11:24;98321.38;;;21.60;86.99
56182;BME280;51963;46.052;14.544;2023-06-01T07:13:53;98324.19;;;21.80;85.25
56182;BME280;51963;46.052;14.544;2023-06-01T07:16:18;98328.03;;;21.09;91.55
56182;BME280;51963;46.052;14.544;2023-06-01T07:18:49;98323.97;;;21.92;85.55
56182;BME280;51963;46.052;14.544;2023-06-01T07:21:15;98315.00;;;22.66;81.92
56182;BME280;51963;46.052;14.544;2023-06-01T07:23:45;98320.66;;;23.21;76.63
56182;BME280;51963;46.052;14.544;2023-06-01T07:26:11;98312.31;;;22.81;79.81
56182;BME280;51963;46.052;14.544;2023-06-01T07:28:37;98312.03;;;22.47;80.71
56182;BME280;51963;46.052;14.544;2023-06-01T07:31:04;98311.97;;;22.31;82.15
56182;BME280;51963;46.052;14.544;2023-06-01T07:33:31;98318.47;;;22.40;81.32
56182;BME280;51963;46.052;14.544;2023-06-01T07:35:57;98315.41;;;22.06;82.08
56182;BME280;51963;46.052;14.544;2023-06-01T07:38:25;98314.44;;;23.10;77.15
56182;BME280;51963;46.052;14.544;2023-06-01T07:40:51;98322.19;;;23.69;73.45
56182;BME280;51963;46.052;14.544;2023-06-01T07:43:17;98320.97;;;24.11;71.69
56182;BME280;51963;46.052;14.544;2023-06-01T07:45:43;98313.13;;;23.08;76.99
56182;BME280;51963;46.052;14.544;2023-06-01T07:48:08;98311.84;;;23.92;72.92
56182;BME280;51963;46.052;14.544;2023-06-01T07:50:34;98312.41;;;23.88;72.76
56182;BME280;51963;46.052;14.544;2023-06-01T07:53:00;98319.09;;;24.07;72.83
56182;BME280;51963;46.052;14.544;2023-06-01T07:55:28;98303.72;;;23.97;72.91
56182;BME280;51963;46.052;14.544;2023-06-01T07:57:56;98302.66;;;24.48;73.23
56182;BME280;51963;46.052;14.544;2023-06-01T08:00:22;98300.00;;;24.78;70.08
56182;BME280;51963;46.052;14.544;2023-06-01T08:02:48;98300.66;;;24.99;70.07
56182;BME280;51963;46.052;14.544;2023-06-01T08:05:13;98294.59;;;24.78;68.36
56182;BME280;51963;46.052;14.544;2023-06-01T08:07:44;98296.19;;;25.13;67.29
56182;BME280;51963;46.052;14.544;2023-06-01T08:10:12;98284.97;;;25.55;64.93
56182;BME280;51963;46.052;14.544;2023-06-01T08:12:39;98296.56;;;25.01;68.52
56182;BME280;51963;46.052;14.544;2023-06-01T08:15:06;98296.06;;;25.97;63.26
56182;BME280;51963;46.052;14.544;2023-06-01T08:17:31;98287.28;;;26.05;63.32
56182;BME280;51963;46.052;14.544;2023-06-01T08:19:57;98295.44;;;26.62;61.33
56182;BME280;51963;46.052;14.544;2023-06-01T08:22:23;98291.28;;;25.69;61.73
56182;BME280;51963;46.052;14.544;2023-06-01T08:24:49;98292.91;;;25.70;63.17
56182;BME280;51963;46.052;14.544;2023-06-01T08:27:22;98299.66;;;26.11;62.32
56182;BME280;51963;46.052;14.544;2023-06-01T08:29:49;98292.75;;;25.81;61.40
56182;BME280;51963;46.052;14.544;2023-06-01T08:32:16;98295.16;;;25.82;61.96
56182;BME280;51963;46.052;14.544;2023-06-01T08:34:46;98290.84;;;26.25;59.83
56182;BME280;51963;46.052;14.544;2023-06-01T08:37:12;98290.75;;;26.68;59.06
56182;BME280;51963;46.052;14.544;2023-06-01T08:39:43;98287.78;;;26.50;59.53
56182;BME280;51963;46.052;14.544;2023-06-01T08:45:12;98292.44;;;26.64;59.96
56182;BME280;51963;46.052;14.544;2023-06-01T08:47:41;98285.94;;;27.12;58.04
56182;BME280;51963;46.052;14.544;2023-06-01T08:50:13;98292.28;;;26.74;58.79
56182;BME280;51963;46.052;14.544;2023-06-01T08:52:43;98283.91;;;25.51;60.73
56182;BME280;51963;46.052;14.544;2023-06-01T08:55:13;98281.31;;;26.46;59.78
56182;BME280;51963;46.052;14.544;2023-06-01T08:57:42;98279.25;;;26.38;58.51
56182;BME280;51963;46.052;14.544;2023-06-01T09:00:11;98282.84;;;27.19;57.11
56182;BME280;51963;46.052;14.544;2023-06-01T09:02:37;98283.81;;;28.07;55.61
56182;BME280;51963;46.052;14.544;2023-06-01T09:05:03;98272.00;;;27.47;53.16
56182;BME280;51963;46.052;14.544;2023-06-01T09:07:30;98277.84;;;27.82;53.20
56182;BME280;51963;46.052;14.544;2023-06-01T09:09:57;98271.66;;;28.18;51.17
56182;BME280;51963;46.052;14.544;2023-06-01T09:12:29;98279.81;;;28.18;51.66
56182;BME280;51963;46.052;14.544;2023-06-01T09:15:10;98273.41;;;28.37;49.29
56182;BME280;51963;46.052;14.544;2023-06-01T09:17:38;98266.16;;;28.55;51.53
56182;BME280;51963;46.052;14.544;2023-06-01T09:20:05;98262.38;;;28.88;50.17
56182;BME280;51963;46.052;14.544;2023-06-01T09:22:44;98262.69;;;29.18;49.51
56182;BME280;51963;46.052;14.544;2023-06-01T09:25:13;98263.38;;;28.46;48.53
56182;BME280;51963;46.052;14.544;2023-06-01T09:27:47;98260.94;;;28.22;47.77
56182;BME280;51963;46.052;14.544;2023-06-01T09:30:15;98262.03;;;28.58;47.44
56182;BME280;51963;46.052;14.544;2023-06-01T09:32:42;98260.41;;;28.57;47.49
56182;BME280;51963;46.052;14.544;2023-06-01T09:35:08;98258.25;;;27.57;50.83
56182;BME280;51963;46.052;14.544;2023-06-01T09:37:37;98254.03;;;28.84;48.41
56182;BME280;51963;46.052;14.544;2023-06-01T09:40:16;98250.38;;;29.20;45.79
56182;BME280;51963;46.052;14.544;2023-06-01T09:42:42;98252.16;;;28.93;45.26
56182;BME280;51963;46.052;14.544;2023-06-01T09:45:34;98256.66;;;29.79;44.03
56182;BME280;51963;46.052;14.544;2023-06-01T09:48:16;98262.13;;;28.75;44.32
56182;BME280;51963;46.052;14.544;2023-06-01T09:50:44;98245.66;;;28.12;45.46
56182;BME280;51963;46.052;14.544;2023-06-01T09:53:10;98259.03;;;27.16;49.11
56182;BME280;51963;46.052;14.544;2023-06-01T09:55:36;98253.84;;;26.86;49.90
56182;BME280;51963;46.052;14.544;2023-06-01T09:58:21;98248.38;;;27.75;48.52
56182;BME280;51963;46.052;14.544;2023-06-01T10:00:49;98259.22;;;28.49;47.18
56182;BME280;51963;46.052;14.544;2023-06-01T10:03:16;98254.16;;;28.33;45.81
56182;BME280;51963;46.052;14.544;2023-06-01T10:05:46;98253.13;;;28.06;47.80
56182;BME280;51963;46.052;14.544;2023-06-01T10:08:14;98257.78;;;26.61;50.33
56182;BME280;51963;46.052;14.544;2023-06-01T10:10:42;98254.06;;;26.57;50.62
56182;BME280;51963;46.052;14.544;2023-06-01T10:13:08;98248.50;;;26.29;53.11
56182;BME280;51963;46.052;14.544;2023-06-01T10:15:33;98248.75;;;25.70;55.02
56182;BME280;51963;46.052;14.544;2023-06-01T10:18:00;98250.72;;;25.40;55.31
56182;BME280;51963;46.052;14.544;2023-06-01T10:20:26;98240.69;;;25.16;56.08
56182;BME280;51963;46.052;14.544;2023-06-01T10:22:52;98235.34;;;24.86;57.40
56182;BME280;51963;46.052;14.544;2023-06-01T10:25:18;98248.59;;;24.83;57.99
56182;BME280;51963;46.052;14.544;2023-06-01T10:27:59;98233.75;;;24.45;61.27
56182;BME280;51963;46.052;14.544;2023-06-01T10:30:26;98237.75;;;24.13;63.53
56182;BME280;51963;46.052;14.544;2023-06-01T10:32:52;98237.47;;;24.20;61.30
56182;BME280;51963;46.052;14.544;2023-06-01T10:38:21;98238.72;;;24.68;61.29
56182;BME280;51963;46.052;14.544;2023-06-01T10:40:49;98235.38;;;24.81;61.93
56182;BME280;51963;46.052;14.544;2023-06-01T10:46:01;98243.72;;;24.10;65.14
56182;BME280;51963;46.052;14.544;2023-06-01T10:48:56;98240.88;;;23.10;85.54
56182;BME280;51963;46.052;14.544;2023-06-01T10:51:23;98232.72;;;21.80;95.80
56182;BME280;51963;46.052;14.544;2023-06-01T10:53:53;98240.75;;;21.70;98.71
56182;BME280;51963;46.052;14.544;2023-06-01T10:56:26;98237.97;;;21.54;100.00
56182;BME280;51963;46.052;14.544;2023-06-01T11:01:37;98232.72;;;21.22;100.00
56182;BME280;51963;46.052;14.544;2023-06-01T11:04:04;98228.88;;;20.75;100.00
56182;BME280;51963;46.052;14.544;2023-06-01T11:06:32;98235.69;;;20.50;100.00
56182;BME280;51963;46.052;14.544;2023-06-01T11:09:03;98227.63;;;20.50;100.00
56182;BME280;51963;46.052;14.544;2023-06-01T11:14:25;98189.41;;;19.83;100.00
56182;BME280;51963;46.052;14.544;2023-06-01T11:16:52;98206.41;;;20.16;100.00
56182;BME280;51963;46.052;14.544;2023-06-01T11:19:20;98211.00;;;20.86;100.00
56182;BME280;51963;46.052;14.544;2023-06-01T11:21:58;98201.88;;;21.35;100.00
56182;BME280;51963;46.052;14.544;2023-06-01T11:24:32;98205.31;;;21.99;100.00
56182;BME280;51963;46.052;14.544;2023-06-01T11:27:06;98205.38;;;22.56;100.00
56182;BME280;51963;46.052;14.544;2023-06-01T11:29:32;98199.41;;;22.85;100.00
56182;BME280;51963;46.052;14.544;2023-06-01T11:32:00;98205.47;;;23.37;100.00
56182;BME280;51963;46.052;14.544;2023-06-01T11:34:39;98191.16;;;26.41;93.84
56182;BME280;51963;46.052;14.544;2023-06-01T11:37:14;98192.53;;;26.38;88.99
56182;BME280;51963;46.052;14.544;2023-06-01T11:39:40;98196.59;;;25.83;87.47
56182;BME280;51963;46.052;14.544;2023-06-01T11:42:08;98184.38;;;25.67;89.14
56182;BME280;51963;46.052;14.544;2023-06-01T11:44:36;98182.13;;;26.92;87.82
56182;BME280;51963;46.052;14.544;2023-06-01T11:47:03;98178.72;;;26.87;81.76
56182;BME280;51963;46.052;14.544;2023-06-01T11:49:39;98178.06;;;26.10;93.31
56182;BME280;51963;46.052;14.544;2023-06-01T11:52:08;98176.09;;;26.34;81.48
56182;BME280;51963;46.052;14.544;2023-06-01T11:54:34;98172.69;;;27.04;76.75
56182;BME280;51963;46.052;14.544;2023-06-01T11:57:02;98165.19;;;26.20;68.58
56182;BME280;51963;46.052;14.544;2023-06-01T11:59:41;98167.63;;;26.69;79.17
56182;BME280;51963;46.052;14.544;2023-06-01T12:02:21;98168.41;;;25.84;68.53
56182;BME280;51963;46.052;14.544;2023-06-01T12:05:02;98150.97;;;26.29;65.40
56182;BME280;51963;46.052;14.544;2023-06-01T12:07:43;98144.09;;;26.17;64.81
56182;BME280;51963;46.052;14.544;2023-06-01T12:10:13;98158.97;;;26.53;66.47
56182;BME280;51963;46.052;14.544;2023-06-01T12:12:43;98149.75;;;26.21;65.96
56182;BME280;51963;46.052;14.544;2023-06-01T12:15:10;98144.50;;;26.44;67.37
56182;BME280;51963;46.052;14.544;2023-06-01T12:17:53;98149.84;;;26.63;63.32
56182;BME280;51963;46.052;14.544;2023-06-01T12:20:30;98140.63;;;26.64;64.60
56182;BME280;51963;46.052;14.544;2023-06-01T12:22:57;98130.75;;;26.54;63.66
56182;BME280;51963;46.052;14.544;2023-06-01T12:25:23;98140.84;;;26.82;60.51
56182;BME280;51963;46.052;14.544;2023-06-01T12:28:07;98139.78;;;27.61;60.04
56182;BME280;51963;46.052;14.544;2023-06-01T12:30:35;98133.75;;;28.10;58.35
56182;BME280;51963;46.052;14.544;2023-06-01T12:33:01;98139.59;;;27.44;57.65
56182;BME280;51963;46.052;14.544;2023-06-01T12:35:30;98096.03;;;28.08;57.95
56182;BME280;51963;46.052;14.544;2023-06-01T12:38:03;98112.50;;;30.39;51.03
56182;BME280;51963;46.052;14.544;2023-06-01T12:40:32;98110.50;;;29.83;48.75
56182;BME280;51963;46.052;14.544;2023-06-01T12:42:59;98115.97;;;31.68;44.49
56182;BME280;51963;46.052;14.544;2023-06-01T12:45:25;98115.59;;;33.45;40.76
56182;BME280;51963;46.052;14.544;2023-06-01T12:47:50;98116.19;;;32.76;41.10
56182;BME280;51963;46.052;14.544;2023-06-01T12:50:16;98108.06;;;34.44;38.34
56182;BME280;51963;46.052;14.544;2023-06-01T12:52:43;98116.63;;;33.82;38.13
56182;BME280;51963;46.052;14.544;2023-06-01T12:55:09;98112.31;;;32.65;37.77
56182;BME280;51963;46.052;14.544;2023-06-01T12:57:36;98114.00;;;30.75;41.47
56182;BME280;51963;46.052;14.544;2023-06-01T13:00:04;98103.09;;;32.57;37.58
56182;BME280;51963;46.052;14.544;2023-06-01T13:02:31;98106.25;;;35.71;32.82
56182;BME280;51963;46.052;14.544;2023-06-01T13:04:59;98105.53;;;35.74;30.38
56182;BME280;51963;46.052;14.544;2023-06-01T13:07:24;98096.41;;;34.79;31.48
56182;BME280;51963;46.052;14.544;2023-06-01T13:09:50;98090.84;;;33.29;34.16
56182;BME280;51963;46.052;14.544;2023-06-01T13:12:17;98081.69;;;34.87;30.89
56182;BME280;51963;46.052;14.544;2023-06-01T13:14:45;98092.94;;;35.73;29.16
56182;BME280;51963;46.052;14.544;2023-06-01T13:17:12;98082.06;;;35.41;31.28
56182;BME280;51963;46.052;14.544;2023-06-01T13:19:37;98085.47;;;35.93;30.08